North Battleford Airport
CYQW : rendu visible

Aérodrome :











RETROUVEZ-NOUS SUR...

 
LOGIN :

S'inscrire | Disclaimer

   EN    FR    IT 

 









Légende :    VFR   VFR Marginal   IFR   IFR Intensif   IFR Très Intensif
Visi : 
Plafond : 
>= 8 km
>= 3000ft
5 à 8 km
1000 à 3000 ft
1500m à 5 km
500 à 1000 ft
800 à 1500m
200 à 500 ft
< 800m
< 200 ft
Symboles :   Orages  Brouillard  Fortes neiges  Fortes précipitations  Vent > 20 kt






- Altitude de l'aérodrome : 1799 ft
- Code IATA : YQW


CYQW - North Battleford

DERNIER METAR :
  • 121800Z AUTO 31007KT 9SM BKN060 OVC073 M04/M08 A2982 RMK SLP137

METARs EXPIRÉS :
  • 121700Z AUTO 32004KT 9SM FEW050 SCT150 M05/M09 A2981 RMK SLP137
  • 121600Z AUTO 30005KT 9SM FEW050 OVC060 M06/M10 A2982 RMK SLP140

TAF TAF CYQW
Valide du 12 à 18h jusqu'au 13 à 06h UTC


121741Z 1218/1306 32005KT P6SM SCT050 BKN150
TEMPO 1218/1222 OVC050
FM122200 32008KT P6SM SCT015 OVC040
TEMPO 1222/1304 P6SM -SN BKN015 OVC040
FM130400 32008KT P6SM SCT006 SCT040
TEMPO 1304/1306 5SM BR BKN006 OVC040 RMK FCST BASED ON AUTO OBS. NXT FCST BY 130000Z



MET'MAP, la Météo Aéronautique d'un coup d'oeil ! - Copyright ORBIFLY Décembre 2007 - Disclaimer

ORBIFLY MET'MAP TEAM :

Programmation & Développement : Alexandra Zaïnal
Conception & Développement : Baudouin d'Aumeries
Co-Programmation & Développement : Marc-Olivier Méhu
Soutien technique & logistique : Manuel Goepfert

Contact : metmap@orbifly.com




SOURCES & CREDITS :

   NOAA       Earth
Advisory